createdAt,value
2017-12-11T00:01:35.020Z,85.83
2017-12-11T00:04:02.446Z,85.70
2017-12-11T00:06:29.872Z,85.45
2017-12-11T00:08:57.281Z,85.60
2017-12-11T00:11:24.802Z,85.78
2017-12-11T00:13:52.225Z,85.95
2017-12-11T00:16:19.649Z,85.84
2017-12-11T00:18:47.078Z,86.06
2017-12-11T00:21:14.507Z,85.87
2017-12-11T00:23:41.930Z,85.56
2017-12-11T00:26:09.363Z,85.67
2017-12-11T00:28:36.790Z,85.85
2017-12-11T00:31:04.217Z,85.82
2017-12-11T00:33:31.650Z,86.35
2017-12-11T00:35:59.061Z,86.26
2017-12-11T00:38:26.491Z,86.17
2017-12-11T00:40:53.917Z,86.11
2017-12-11T00:43:21.334Z,85.95
2017-12-11T00:45:48.779Z,85.95
2017-12-11T00:48:16.215Z,86.24
2017-12-11T00:50:43.639Z,86.31
2017-12-11T00:53:11.053Z,86.36
2017-12-11T00:55:38.490Z,86.32
2017-12-11T00:58:05.906Z,86.40
2017-12-11T01:00:33.329Z,86.37
2017-12-11T01:03:00.750Z,86.28
2017-12-11T01:05:28.183Z,86.29
2017-12-11T01:07:55.612Z,86.28
2017-12-11T01:10:23.031Z,86.57
2017-12-11T01:12:50.447Z,86.95
2017-12-11T01:15:17.870Z,86.69
2017-12-11T01:17:45.286Z,86.53
2017-12-11T01:20:12.703Z,86.48
2017-12-11T01:22:40.126Z,86.32
2017-12-11T01:25:07.537Z,86.49
2017-12-11T01:27:34.967Z,86.67
2017-12-11T01:30:02.386Z,86.91
2017-12-11T01:32:29.818Z,87.17
2017-12-11T01:34:57.237Z,87.40
2017-12-11T01:37:24.649Z,87.34
2017-12-11T01:39:52.060Z,87.37
2017-12-11T01:42:19.489Z,87.17
2017-12-11T01:44:46.910Z,87.05
2017-12-11T01:47:14.330Z,87.16
2017-12-11T01:49:41.761Z,87.38
2017-12-11T01:52:09.193Z,87.49
2017-12-11T01:54:36.605Z,87.58
2017-12-11T01:57:04.014Z,87.87
2017-12-11T01:59:31.439Z,87.95
2017-12-11T02:01:58.860Z,87.73
2017-12-11T02:04:26.282Z,87.88
2017-12-11T02:06:53.713Z,88.11
2017-12-11T02:09:21.130Z,88.08
2017-12-11T02:11:48.558Z,88.19
2017-12-11T02:14:15.974Z,88.42
2017-12-11T02:16:43.386Z,88.42
2017-12-11T02:19:10.813Z,88.75
2017-12-11T02:21:38.233Z,89.07
2017-12-11T02:24:05.654Z,89.49
2017-12-11T02:26:33.073Z,89.69
2017-12-11T02:29:00.498Z,89.61
2017-12-11T02:31:27.934Z,89.74
2017-12-11T02:33:55.372Z,90.33
2017-12-11T02:36:22.791Z,90.60
2017-12-11T02:38:50.224Z,90.46
2017-12-11T02:41:17.633Z,90.25
2017-12-11T02:43:45.050Z,90.72
2017-12-11T02:46:12.474Z,90.76
2017-12-11T02:48:39.924Z,90.36
2017-12-11T02:51:07.317Z,90.40
2017-12-11T02:53:34.735Z,90.44
2017-12-11T02:56:02.171Z,90.38
2017-12-11T02:58:29.590Z,90.47
2017-12-11T03:00:57.021Z,90.58
2017-12-11T03:03:24.438Z,90.62
2017-12-11T03:05:51.838Z,90.18
2017-12-11T03:08:19.267Z,90.12
2017-12-11T03:10:46.685Z,90.03
2017-12-11T03:13:14.110Z,89.97
2017-12-11T03:15:41.528Z,90.07
2017-12-11T03:18:08.972Z,90.15
2017-12-11T03:20:36.381Z,90.09
2017-12-11T03:23:03.798Z,90.07
2017-12-11T03:25:31.226Z,90.31
2017-12-11T03:27:58.637Z,90.71
2017-12-11T03:30:26.075Z,91.02
2017-12-11T03:32:53.493Z,91.34
2017-12-11T03:35:20.914Z,91.60
2017-12-11T03:37:48.328Z,91.71
2017-12-11T03:40:15.771Z,91.36
2017-12-11T03:42:43.183Z,91.11
2017-12-11T03:45:10.603Z,91.01
2017-12-11T03:47:38.030Z,90.53
2017-12-11T03:50:05.445Z,90.88
2017-12-11T03:52:32.880Z,91.27
2017-12-11T03:55:00.290Z,91.60
2017-12-11T03:57:27.710Z,91.64
2017-12-11T03:59:55.126Z,91.46
2017-12-11T04:02:22.554Z,91.32
2017-12-11T04:04:49.971Z,91.25
2017-12-11T04:07:17.381Z,90.97
2017-12-11T04:09:44.805Z,90.71
2017-12-11T04:12:12.217Z,91.23
2017-12-11T04:14:39.637Z,91.77
2017-12-11T04:17:07.050Z,92.70
2017-12-11T04:19:34.465Z,92.63
2017-12-11T04:22:01.878Z,92.58
2017-12-11T04:24:29.306Z,92.80
2017-12-11T04:26:56.722Z,93.58
2017-12-11T04:29:24.147Z,93.98
2017-12-11T04:31:51.570Z,93.77
2017-12-11T04:34:19.011Z,93.57
2017-12-11T04:36:46.425Z,93.18
2017-12-11T04:39:13.839Z,92.65
2017-12-11T04:41:41.284Z,92.15
2017-12-11T04:44:08.690Z,91.79
2017-12-11T04:46:36.109Z,91.60
2017-12-11T04:49:03.529Z,91.41
2017-12-11T04:51:30.958Z,91.51
2017-12-11T04:53:58.385Z,92.02
2017-12-11T04:56:25.794Z,91.56
2017-12-11T04:58:53.217Z,91.29
2017-12-11T05:01:20.642Z,91.14
2017-12-11T05:03:48.062Z,92.01
2017-12-11T05:06:15.478Z,92.80
2017-12-11T05:08:42.898Z,93.33
2017-12-11T05:11:10.335Z,93.62
2017-12-11T05:13:37.762Z,93.80
2017-12-11T05:16:05.178Z,94.62
2017-12-11T05:18:32.590Z,94.64
2017-12-11T05:21:00.015Z,94.63
2017-12-11T05:23:27.429Z,94.36
2017-12-11T05:25:54.845Z,94.40
2017-12-11T05:28:22.261Z,94.20
2017-12-11T05:30:49.698Z,94.45
2017-12-11T05:33:17.117Z,94.56
2017-12-11T05:35:44.529Z,94.36
2017-12-11T05:38:11.950Z,94.08
2017-12-11T05:40:39.367Z,94.00
2017-12-11T05:43:06.781Z,93.67
2017-12-11T05:45:34.210Z,92.90
2017-12-11T05:48:01.642Z,92.86
2017-12-11T05:50:29.051Z,91.92
2017-12-11T05:52:56.475Z,91.61
2017-12-11T05:55:23.889Z,91.67
2017-12-11T05:57:51.302Z,92.17
2017-12-11T06:00:18.718Z,92.01
2017-12-11T06:02:46.137Z,91.55
2017-12-11T06:05:13.566Z,91.91
2017-12-11T06:07:40.973Z,91.43
2017-12-11T06:10:08.405Z,91.36
2017-12-11T06:12:35.827Z,91.51
2017-12-11T06:15:03.245Z,91.52
2017-12-11T06:17:30.690Z,91.43
2017-12-11T06:19:58.105Z,90.95
2017-12-11T06:22:25.538Z,91.04
2017-12-11T06:24:52.957Z,90.46
2017-12-11T06:27:20.365Z,90.81
2017-12-11T06:29:47.786Z,90.28
2017-12-11T06:32:15.215Z,89.88
2017-12-11T06:34:42.641Z,90.44
2017-12-11T06:37:10.060Z,90.40
2017-12-11T06:39:37.483Z,90.35
2017-12-11T06:42:04.896Z,90.08
2017-12-11T06:44:32.342Z,90.12
2017-12-11T06:46:59.754Z,89.30
2017-12-11T06:49:27.174Z,89.24
2017-12-11T06:51:54.598Z,88.88
2017-12-11T06:54:22.025Z,88.34
2017-12-11T06:56:49.437Z,89.12
2017-12-11T06:59:16.907Z,88.24
2017-12-11T07:01:44.274Z,88.18
2017-12-11T07:04:11.698Z,87.36
2017-12-11T07:06:39.135Z,86.99
2017-12-11T07:09:06.550Z,87.01
2017-12-11T07:11:33.970Z,86.08
2017-12-11T07:14:01.389Z,85.90
2017-12-11T07:16:28.822Z,86.32
2017-12-11T07:18:56.238Z,86.53
2017-12-11T07:21:23.677Z,86.65
2017-12-11T07:23:51.102Z,86.73
2017-12-11T07:26:18.510Z,87.17
2017-12-11T07:28:45.936Z,87.76
2017-12-11T07:31:13.346Z,87.97
2017-12-11T07:33:40.762Z,88.07
2017-12-11T07:36:08.180Z,88.96
2017-12-11T07:38:35.608Z,90.22
2017-12-11T07:41:03.027Z,90.57
2017-12-11T07:43:30.451Z,91.28
2017-12-11T07:45:57.932Z,92.01
2017-12-11T07:48:25.306Z,92.92
2017-12-11T07:50:52.721Z,93.35
2017-12-11T07:53:20.146Z,93.21
2017-12-11T07:55:47.577Z,93.71
2017-12-11T07:58:14.989Z,93.99
2017-12-11T08:00:42.428Z,93.79
2017-12-11T08:03:09.847Z,93.74
2017-12-11T08:05:37.262Z,94.27
2017-12-11T08:08:04.690Z,94.07
2017-12-11T08:10:32.103Z,93.99
2017-12-11T08:12:59.570Z,94.39
2017-12-11T08:15:26.974Z,94.12
2017-12-11T08:17:54.398Z,94.33
2017-12-11T08:20:21.810Z,94.67
2017-12-11T08:22:49.250Z,94.71
2017-12-11T08:25:16.690Z,95.14
2017-12-11T08:27:44.106Z,95.33
2017-12-11T08:30:11.521Z,95.54
2017-12-11T08:32:38.950Z,95.56
2017-12-11T08:35:06.379Z,95.88
2017-12-11T08:37:33.797Z,96.03
2017-12-11T08:40:01.214Z,96.13
2017-12-11T08:42:28.624Z,95.96
2017-12-11T08:44:56.077Z,96.09
2017-12-11T08:47:23.483Z,95.82
2017-12-11T08:49:50.918Z,95.73
2017-12-11T08:52:18.370Z,96.43
2017-12-11T08:54:45.796Z,96.98
2017-12-11T08:57:13.214Z,96.42
2017-12-11T08:59:40.622Z,96.77
2017-12-11T09:02:08.037Z,96.47
2017-12-11T09:04:35.459Z,96.77
2017-12-11T09:07:02.873Z,96.85
2017-12-11T09:09:30.305Z,96.95
2017-12-11T09:11:57.714Z,97.29
2017-12-11T09:14:25.138Z,97.21
2017-12-11T09:16:52.565Z,97.58
2017-12-11T09:19:19.985Z,97.48
2017-12-11T09:21:47.401Z,97.68
2017-12-11T09:24:14.813Z,97.84
2017-12-11T09:26:42.238Z,97.79
2017-12-11T09:29:09.687Z,97.77
2017-12-11T09:31:37.115Z,97.14
2017-12-11T09:34:04.533Z,97.34
2017-12-11T09:36:32.001Z,97.52
2017-12-11T09:38:59.417Z,97.30
2017-12-11T09:41:26.841Z,97.23
2017-12-11T09:43:54.262Z,97.88
2017-12-11T09:46:21.674Z,97.93
2017-12-11T09:48:49.120Z,97.71
2017-12-11T09:51:16.530Z,98.05
2017-12-11T09:53:43.953Z,97.83
2017-12-11T09:56:11.383Z,98.10
2017-12-11T09:58:39.637Z,98.32
2017-12-11T10:01:07.058Z,98.10
2017-12-11T10:03:34.478Z,98.40
2017-12-11T10:06:01.900Z,98.50
2017-12-11T10:08:30.114Z,98.45
2017-12-11T10:10:57.534Z,98.38
2017-12-11T10:13:24.954Z,98.47
2017-12-11T10:15:52.370Z,98.51
2017-12-11T10:18:19.777Z,98.64
2017-12-11T10:20:47.193Z,98.45
2017-12-11T10:23:14.610Z,98.29
2017-12-11T10:25:42.026Z,98.33
2017-12-11T10:28:09.446Z,98.17
2017-12-11T10:30:36.858Z,98.29
2017-12-11T10:33:04.290Z,97.91
2017-12-11T10:35:31.693Z,97.79
2017-12-11T10:37:59.123Z,97.91
2017-12-11T10:40:26.541Z,97.92
2017-12-11T10:42:53.965Z,98.00
2017-12-11T10:45:21.397Z,97.73
2017-12-11T10:47:48.832Z,97.82
2017-12-11T10:50:16.253Z,98.00
2017-12-11T10:52:43.682Z,97.86
2017-12-11T10:55:11.093Z,98.03
2017-12-11T10:57:38.513Z,97.61
2017-12-11T11:00:05.949Z,96.67
2017-12-11T11:02:33.366Z,96.53
2017-12-11T11:05:00.791Z,97.08
2017-12-11T11:07:28.217Z,97.18
2017-12-11T11:09:55.630Z,96.65
2017-12-11T11:12:23.046Z,95.98
2017-12-11T11:14:50.458Z,95.87
2017-12-11T11:17:17.881Z,95.64
2017-12-11T11:19:45.316Z,95.62
2017-12-11T11:22:12.726Z,96.53
2017-12-11T11:24:40.134Z,96.46
2017-12-11T11:27:07.549Z,96.86
2017-12-11T11:29:35.008Z,96.57
2017-12-11T11:32:02.382Z,96.18
2017-12-11T11:34:29.801Z,95.85
2017-12-11T11:36:57.209Z,95.36
2017-12-11T11:39:24.629Z,95.38
2017-12-11T11:41:52.046Z,95.08
2017-12-11T11:44:19.471Z,94.58
2017-12-11T11:46:46.882Z,95.10
2017-12-11T11:49:14.294Z,95.82
2017-12-11T11:51:41.712Z,95.33
2017-12-11T11:54:09.111Z,94.83
2017-12-11T11:56:36.533Z,94.68
2017-12-11T11:59:03.942Z,95.26
2017-12-11T12:01:31.359Z,96.13
2017-12-11T12:03:58.773Z,96.66
2017-12-11T12:06:26.198Z,96.83
2017-12-11T12:08:53.598Z,96.56
2017-12-11T12:11:21.014Z,96.05
2017-12-11T12:13:48.417Z,96.17
2017-12-11T12:16:15.839Z,96.04
2017-12-11T12:18:43.251Z,95.90
2017-12-11T12:21:10.675Z,96.19
2017-12-11T12:23:38.093Z,96.52
2017-12-11T12:26:05.521Z,97.00
2017-12-11T12:28:32.950Z,97.00
2017-12-11T12:31:00.357Z,96.82
2017-12-11T12:33:27.789Z,97.03
2017-12-11T12:35:55.210Z,97.18
2017-12-11T12:38:22.614Z,96.91
2017-12-11T12:40:50.040Z,96.96
2017-12-11T12:43:17.437Z,97.04
2017-12-11T12:45:44.874Z,96.63
2017-12-11T12:48:12.310Z,96.23
2017-12-11T12:50:39.739Z,95.96
2017-12-11T12:53:07.150Z,95.50
2017-12-11T12:55:34.569Z,95.52
2017-12-11T12:58:01.981Z,95.54
2017-12-11T13:00:29.393Z,95.44
2017-12-11T13:02:56.813Z,95.50
2017-12-11T13:05:24.221Z,95.53
2017-12-11T13:07:51.653Z,95.47
2017-12-11T13:10:19.064Z,95.45
2017-12-11T13:12:47.341Z,95.27
2017-12-11T13:15:14.763Z,95.35
2017-12-11T13:17:42.166Z,95.34
2017-12-11T13:20:09.584Z,95.40
2017-12-11T13:22:36.985Z,95.49
2017-12-11T13:25:04.426Z,95.50
2017-12-11T13:27:31.834Z,95.66
2017-12-11T13:29:59.241Z,95.73
2017-12-11T13:32:26.665Z,95.78
2017-12-11T13:34:54.100Z,95.69
2017-12-11T13:37:21.528Z,95.55
2017-12-11T13:39:48.958Z,95.43
2017-12-11T13:42:16.372Z,95.40
2017-12-11T13:44:43.786Z,95.45
2017-12-11T13:47:11.194Z,95.32
2017-12-11T13:49:38.602Z,95.29
2017-12-11T13:52:06.018Z,95.29
2017-12-11T13:54:33.446Z,95.35
2017-12-11T13:57:00.870Z,95.54
2017-12-11T13:59:28.810Z,95.65
2017-12-11T14:01:56.249Z,95.72
2017-12-11T14:04:23.678Z,95.83
2017-12-11T14:06:51.108Z,95.82
2017-12-11T14:09:18.518Z,95.70
2017-12-11T14:11:45.936Z,95.78
2017-12-11T14:14:13.341Z,95.80
2017-12-11T14:16:40.750Z,95.80
2017-12-11T14:19:08.163Z,95.65
2017-12-11T14:21:35.570Z,95.54
2017-12-11T14:24:02.994Z,95.54
2017-12-11T14:26:31.363Z,95.42
2017-12-11T14:28:58.765Z,95.54
2017-12-11T14:31:26.174Z,96.01
2017-12-11T14:33:53.581Z,96.45
2017-12-11T14:36:21.019Z,96.94
2017-12-11T14:38:48.431Z,97.08
2017-12-11T14:41:15.846Z,96.94
2017-12-11T14:43:43.282Z,97.04
2017-12-11T14:46:10.690Z,96.96
2017-12-11T14:48:38.125Z,97.11
2017-12-11T14:51:05.541Z,97.22
2017-12-11T14:53:32.983Z,96.96
2017-12-11T14:56:01.350Z,96.83
2017-12-11T14:58:29.026Z,96.76
2017-12-11T15:00:56.462Z,96.75
2017-12-11T15:03:23.866Z,96.64
2017-12-11T15:05:51.302Z,96.56
2017-12-11T15:08:18.726Z,96.42
2017-12-11T15:10:46.138Z,96.53
2017-12-11T15:13:13.558Z,96.38
2017-12-11T15:15:40.966Z,96.22
2017-12-11T15:18:08.398Z,96.26
2017-12-11T15:20:35.795Z,96.17
2017-12-11T15:23:03.302Z,96.05
2017-12-11T15:25:30.737Z,95.83
2017-12-11T15:27:58.176Z,96.00
2017-12-11T15:30:25.625Z,96.09
2017-12-11T15:32:53.038Z,95.88
2017-12-11T15:35:20.456Z,95.73
2017-12-11T15:37:47.874Z,95.60
2017-12-11T15:40:15.290Z,95.60
2017-12-11T15:42:42.703Z,95.47
2017-12-11T15:45:10.108Z,95.51
2017-12-11T15:47:37.521Z,95.72
2017-12-11T15:50:04.938Z,95.83
2017-12-11T15:52:32.366Z,95.81
2017-12-11T15:54:59.781Z,95.81
2017-12-11T15:57:27.198Z,95.62
2017-12-11T15:59:54.625Z,95.74
2017-12-11T16:02:22.894Z,95.48
2017-12-11T16:04:50.344Z,95.22
2017-12-11T16:07:17.754Z,95.10
2017-12-11T16:09:45.168Z,94.98
2017-12-11T16:12:12.577Z,94.81
2017-12-11T16:14:39.989Z,94.68
2017-12-11T16:17:07.413Z,94.74
2017-12-11T16:19:34.836Z,94.55
2017-12-11T16:22:02.320Z,94.53
2017-12-11T16:24:29.729Z,94.50
2017-12-11T16:26:57.181Z,94.45
2017-12-11T16:29:24.609Z,94.38
2017-12-11T16:31:52.034Z,94.28
2017-12-11T16:34:19.446Z,94.03
2017-12-11T16:36:46.866Z,94.17
2017-12-11T16:39:14.278Z,94.02
2017-12-11T16:41:41.730Z,93.69
2017-12-11T16:44:09.174Z,93.05
2017-12-11T16:46:36.591Z,93.27
2017-12-11T16:49:04.006Z,93.27
2017-12-11T16:51:31.421Z,92.91
2017-12-11T16:53:58.834Z,93.08
2017-12-11T16:56:26.246Z,93.41
2017-12-11T16:58:53.658Z,93.43
2017-12-11T17:01:21.078Z,93.41
2017-12-11T17:03:48.489Z,93.30
2017-12-11T17:06:15.902Z,93.26
2017-12-11T17:08:43.318Z,93.02
2017-12-11T17:11:10.726Z,92.94
2017-12-11T17:13:38.146Z,92.66
2017-12-11T17:16:05.554Z,92.85
2017-12-11T17:18:32.966Z,92.85
2017-12-11T17:21:00.379Z,92.32
2017-12-11T17:23:27.786Z,92.54
2017-12-11T17:25:55.198Z,92.62
2017-12-11T17:28:22.603Z,92.41
2017-12-11T17:30:50.020Z,92.27
2017-12-11T17:33:17.427Z,92.64
2017-12-11T17:35:44.843Z,92.83
2017-12-11T17:38:12.254Z,92.53
2017-12-11T17:40:39.679Z,92.55
2017-12-11T17:43:07.083Z,92.61
2017-12-11T17:45:34.490Z,92.54
2017-12-11T17:48:01.898Z,92.51
2017-12-11T17:50:29.306Z,92.69
2017-12-11T17:52:56.722Z,92.76
2017-12-11T17:55:24.129Z,92.79
2017-12-11T17:57:51.544Z,92.69
2017-12-11T18:00:18.950Z,92.35
2017-12-11T18:02:46.371Z,92.52
2017-12-11T18:05:13.779Z,92.54
2017-12-11T18:07:41.183Z,92.67
2017-12-11T18:10:08.594Z,92.83
2017-12-11T18:12:36.034Z,93.04
2017-12-11T18:15:03.454Z,92.36
2017-12-11T18:17:30.858Z,92.56
2017-12-11T18:19:58.272Z,92.45
2017-12-11T18:22:25.674Z,92.60
2017-12-11T18:24:53.093Z,92.49
2017-12-11T18:27:20.502Z,92.54
2017-12-11T18:29:47.906Z,92.26
2017-12-11T18:32:15.318Z,92.16
2017-12-11T18:34:42.730Z,92.29
2017-12-11T18:37:10.142Z,92.39
2017-12-11T18:39:38.370Z,91.46
2017-12-11T18:42:05.876Z,91.77
2017-12-11T18:44:33.282Z,91.79
2017-12-11T18:47:00.778Z,91.16
2017-12-11T18:49:28.235Z,90.90
2017-12-11T18:51:55.648Z,91.35
2017-12-11T18:54:23.057Z,91.34
2017-12-11T18:56:50.476Z,91.10
2017-12-11T18:59:17.882Z,91.25
2017-12-11T19:01:45.349Z,91.15
2017-12-11T19:04:12.754Z,90.82
2017-12-11T19:06:40.161Z,90.71
2017-12-11T19:09:07.585Z,91.04
2017-12-11T19:11:34.990Z,90.90
2017-12-11T19:14:02.394Z,90.69
2017-12-11T19:16:29.805Z,90.76
2017-12-11T19:18:57.260Z,90.41
2017-12-11T19:21:24.644Z,90.32
2017-12-11T19:23:52.050Z,90.10
2017-12-11T19:26:19.459Z,90.01
2017-12-11T19:28:46.861Z,90.46
2017-12-11T19:31:14.275Z,90.14
2017-12-11T19:33:41.694Z,89.38
2017-12-11T19:36:09.098Z,89.41
2017-12-11T19:38:36.510Z,88.76
2017-12-11T19:41:03.962Z,88.15
2017-12-11T19:43:31.374Z,87.53
2017-12-11T19:45:58.778Z,87.40
2017-12-11T19:48:26.182Z,86.32
2017-12-11T19:50:53.601Z,86.49
2017-12-11T19:53:20.999Z,84.70
2017-12-11T19:55:48.414Z,85.74
2017-12-11T19:58:16.526Z,85.83
2017-12-11T20:00:44.010Z,85.69
2017-12-11T20:03:11.409Z,84.68
2017-12-11T20:05:38.873Z,84.34
2017-12-11T20:08:06.280Z,83.76
2017-12-11T20:10:33.698Z,83.19
2017-12-11T20:13:01.297Z,82.86
2017-12-11T20:15:28.701Z,82.70
2017-12-11T20:17:56.116Z,82.57
2017-12-11T20:20:23.521Z,83.54
2017-12-11T20:22:50.932Z,83.93
2017-12-11T20:25:18.343Z,82.66
2017-12-11T20:27:45.755Z,82.61
2017-12-11T20:30:13.165Z,82.37
2017-12-11T20:32:40.566Z,82.44
2017-12-11T20:35:07.982Z,82.60
2017-12-11T20:37:35.390Z,82.33
2017-12-11T20:40:02.878Z,81.91
2017-12-11T20:42:30.297Z,82.32
2017-12-11T20:44:57.715Z,81.93
2017-12-11T20:47:25.134Z,81.09
2017-12-11T20:49:52.543Z,81.83
2017-12-11T20:52:19.958Z,81.73
2017-12-11T20:54:47.362Z,81.89
2017-12-11T20:57:14.778Z,81.76
2017-12-11T20:59:42.190Z,80.78
2017-12-11T21:02:09.615Z,82.29
2017-12-11T21:04:37.065Z,81.92
2017-12-11T21:07:04.462Z,81.23
2017-12-11T21:09:31.874Z,80.58
2017-12-11T21:11:59.348Z,81.59
2017-12-11T21:14:26.754Z,81.36
2017-12-11T21:16:54.166Z,81.99
2017-12-11T21:19:21.589Z,81.23
2017-12-11T21:21:49.239Z,81.97
2017-12-11T21:24:16.664Z,82.39
2017-12-11T21:26:44.069Z,82.29
2017-12-11T21:29:11.477Z,82.82
2017-12-11T21:31:38.886Z,83.18
2017-12-11T21:34:06.294Z,83.28
2017-12-11T21:36:33.711Z,82.64
2017-12-11T21:39:01.111Z,82.69
2017-12-11T21:41:28.525Z,82.83
2017-12-11T21:43:55.930Z,83.09
2017-12-11T21:46:23.354Z,83.64
2017-12-11T21:48:50.762Z,83.67
2017-12-11T21:51:18.162Z,82.85
2017-12-11T21:53:45.573Z,83.14
2017-12-11T21:56:12.982Z,82.81
2017-12-11T21:58:40.393Z,82.22
2017-12-11T22:01:07.798Z,82.38
2017-12-11T22:03:35.215Z,82.11
2017-12-11T22:06:02.618Z,83.86
2017-12-11T22:08:30.039Z,84.63
2017-12-11T22:10:57.441Z,85.82
2017-12-11T22:13:24.846Z,85.78
2017-12-11T22:15:52.253Z,86.48
2017-12-11T22:18:19.658Z,86.64
2017-12-11T22:20:47.077Z,87.56
2017-12-11T22:23:14.490Z,87.52
2017-12-11T22:25:41.914Z,87.67
2017-12-11T22:28:09.314Z,87.62
2017-12-11T22:30:36.734Z,87.02
2017-12-11T22:33:04.142Z,87.54
2017-12-11T22:35:31.554Z,87.71
2017-12-11T22:37:58.966Z,88.10
2017-12-11T22:40:26.369Z,88.41
2017-12-11T22:42:53.782Z,87.98
2017-12-11T22:45:21.186Z,88.00
2017-12-11T22:47:48.607Z,87.80
2017-12-11T22:50:16.016Z,87.29
2017-12-11T22:52:43.414Z,87.91
2017-12-11T22:55:10.822Z,87.80
2017-12-11T22:57:38.232Z,87.95
2017-12-11T23:00:05.689Z,87.77
2017-12-11T23:02:33.097Z,88.06
2017-12-11T23:05:00.519Z,88.46
2017-12-11T23:07:27.922Z,88.43
2017-12-11T23:09:55.334Z,88.42
2017-12-11T23:12:22.751Z,88.23
2017-12-11T23:14:50.159Z,88.10
2017-12-11T23:17:17.566Z,87.92
2017-12-11T23:19:44.980Z,89.77
2017-12-11T23:22:12.386Z,91.87
2017-12-11T23:24:39.798Z,91.65
2017-12-11T23:27:07.218Z,92.04
2017-12-11T23:29:34.627Z,92.18
2017-12-11T23:32:02.034Z,92.65
2017-12-11T23:34:29.447Z,93.65
2017-12-11T23:36:56.854Z,92.25
2017-12-11T23:39:24.269Z,92.83
2017-12-11T23:41:51.678Z,93.18
2017-12-11T23:44:19.106Z,92.97
2017-12-11T23:46:46.517Z,92.82
2017-12-11T23:49:13.958Z,93.22
2017-12-11T23:51:41.377Z,93.19
2017-12-11T23:54:20.579Z,93.13
2017-12-11T23:56:47.985Z,93.25
2017-12-11T23:59:15.398Z,93.50
